Koreatown, NY

15:23 EST le 27 février 2017 (GMT -0500)
Chelsea, West 28th St. | | Change Station

Alt. 110 ft 40.75 °N, 73.99 °W | Updated 4 seconds ago

Mostly Cloudy
Nuageux
52.7 ° F
Paraît 52.7 ° F
N
0.0
Vent Variable Vent de NO
Gusts 0.0 mph

Aujourd'hui
Haut(e) -- | Bas -- ° F
--% Risque de précip.
Hier
Haut(e) -- | Bas -- ° F
Precip. -- pouce
Pression 30.35 pouce
Visibilité 10.0 Miles terrestres
Nuages Nuageux 10000 ft
Point de rosée 18 ° F
Humidité 25%
Précipitations 0.00 pouce
Profondeur de la couche neigeuse Non disponible.
6:32 AM 5:45 PM
Nouvelle lune, 2% visible
METAR KNYC 271951Z AUTO 23004KT 10SM BKN100 12/M07 A3037 RMK AO2 SLP277 T01171067 $
Pression 30.35 pouce
Visibilité 10.0 Miles terrestres
Nuages Nuageux 10000 ft
Point de rosée 18 ° F
Humidité 25%
Précipitations 0.00 pouce
Profondeur de la couche neigeuse Non disponible.
6:32 AM 5:45 PM
Nouvelle lune, 2% visible
METAR KNYC 271951Z AUTO 23004KT 10SM BKN100 12/M07 A3037 RMK AO2 SLP277 T01171067 $

Get Your Daily Forecast Email!

Thanks for signing up!

Be on the lookout for a verification email in your inbox.

You'll start receiving the daily forecast at 8 AM.

×

10-Day Weather Forecast

Almanac

Astronomie

Feb. 27, 2017 Lever Coucher
Temps réel
Crépuscule civil
Crépuscule nautique
Crépuscule astronomique
Lune
Durée de lumière visible
Longueur du jour
Tomorrow will be .
, % of the Moon is Illuminated

Extrêmes aujourd'hui

State Highs State Lows

Community

WunderPhotos

Upload Photos

1,962,540 Photos téléchargées !

WunderBlog® & News

Nearby

Qualité de l'air

  Qualité de l'air Indice de la qualité de l'air Polluant
Not available.

Épaisseur de neige

Station Depth Altitude

Activité sismique

Ville Distance Mag. Time & Date
Minimum magnitude displayed is 2.5.

Températures des eaux côtières

Lieu Température

Stations

Stations météo à proximité

Emplacement de la station Température Refroidissement éolien Point de rosée Humidité Vent Precip. Alt. Mise à jour Type
                   

Watches & Warnings

There are currently no watches in effect.